Terminal Aerodrome Forecast
Issued by NWS Sioux Falls, SD

Home | Current Version | Previous Version | Graphics & Text | Print | Product List | Glossary Off
Versions: 1 2 3 4 5 6 7 8 9 10 11 12 13 14 15 16 17 18 19 20

000
FTUS43 KFSD 261720
TAFFSD
TAF
KFSD 261720Z 2618/2718 05010G16KT P6SM OVC018
     FM262100 06015G23KT P6SM VCSH OVC018
     FM270200 07019G26KT P6SM SHRA OVC015
      TEMPO 2703/2706 TS OVC015CB
     FM270800 08021G28KT 5SM SHRA BR OVC010
     FM271100 09021G28KT 5SM SHRA BR OVC008=

USA.gov is the U.S. government's official web portal to all federal, state and local government web resources and services.